sensor_id;sensor_type;location;lat;lon;timestamp;pressure;altitude;pressure_sealevel;temperature;humidity
73600;BME280;61877;48.246;9.220;2023-04-02T00:04:16;93392.75;;;4.45;94.56
73600;BME280;61877;48.246;9.220;2023-04-02T00:06:42;93398.56;;;4.38;94.71
73600;BME280;61877;48.246;9.220;2023-04-02T00:09:23;93396.06;;;4.33;94.90
73600;BME280;61877;48.246;9.220;2023-04-02T00:11:51;93400.13;;;4.31;94.93
73600;BME280;61877;48.246;9.220;2023-04-02T00:14:22;93393.88;;;4.27;95.13
73600;BME280;61877;48.246;9.220;2023-04-02T00:16:49;93395.63;;;4.23;94.82
73600;BME280;61877;48.246;9.220;2023-04-02T00:19:23;93400.16;;;4.22;95.02
73600;BME280;61877;48.246;9.220;2023-04-02T00:21:51;93399.03;;;4.23;94.43
73600;BME280;61877;48.246;9.220;2023-04-02T00:24:20;93405.78;;;4.21;94.82
73600;BME280;61877;48.246;9.220;2023-04-02T00:26:48;93406.41;;;4.18;95.65
73600;BME280;61877;48.246;9.220;2023-04-02T00:29:15;93411.25;;;4.16;95.45
73600;BME280;61877;48.246;9.220;2023-04-02T00:31:44;93408.91;;;4.14;95.87
73600;BME280;61877;48.246;9.220;2023-04-02T00:34:20;93399.84;;;4.15;96.11
73600;BME280;61877;48.246;9.220;2023-04-02T00:36:47;93399.03;;;4.15;95.65
73600;BME280;61877;48.246;9.220;2023-04-02T00:39:19;93388.44;;;4.15;95.97
73600;BME280;61877;48.246;9.220;2023-04-02T00:41:48;93387.81;;;4.18;95.98
73600;BME280;61877;48.246;9.220;2023-04-02T00:44:17;93387.97;;;4.21;95.77
73600;BME280;61877;48.246;9.220;2023-04-02T00:46:43;93396.22;;;4.20;95.02
73600;BME280;61877;48.246;9.220;2023-04-02T00:49:19;93397.34;;;4.19;95.23
73600;BME280;61877;48.246;9.220;2023-04-02T00:51:49;93396.88;;;4.17;95.45
73600;BME280;61877;48.246;9.220;2023-04-02T00:54:19;93398.44;;;4.18;96.07
73600;BME280;61877;48.246;9.220;2023-04-02T00:56:51;93402.16;;;4.17;95.56
73600;BME280;61877;48.246;9.220;2023-04-02T00:59:24;93395.63;;;4.14;95.65
73600;BME280;61877;48.246;9.220;2023-04-02T01:01:53;93407.31;;;4.13;95.74
73600;BME280;61877;48.246;9.220;2023-04-02T01:04:29;93407.16;;;4.10;95.97
73600;BME280;61877;48.246;9.220;2023-04-02T01:06:56;93403.59;;;4.06;95.96
73600;BME280;61877;48.246;9.220;2023-04-02T01:09:29;93406.09;;;4.02;96.14
73600;BME280;61877;48.246;9.220;2023-04-02T01:14:58;93412.19;;;4.03;96.08
73600;BME280;61877;48.246;9.220;2023-04-02T01:17:47;93407.50;;;4.00;96.46
73600;BME280;61877;48.246;9.220;2023-04-02T01:23:36;93405.78;;;3.95;96.25
73600;BME280;61877;48.246;9.220;2023-04-02T01:26:14;93405.00;;;3.94;96.51
73600;BME280;61877;48.246;9.220;2023-04-02T01:28:53;93401.88;;;3.92;96.51
73600;BME280;61877;48.246;9.220;2023-04-02T01:31:25;93405.44;;;3.88;96.36
73600;BME280;61877;48.246;9.220;2023-04-02T01:33:51;93405.91;;;3.81;96.04
73600;BME280;61877;48.246;9.220;2023-04-02T01:36:23;93407.50;;;3.74;96.02
73600;BME280;61877;48.246;9.220;2023-04-02T01:38:57;93412.16;;;3.68;96.17
73600;BME280;61877;48.246;9.220;2023-04-02T01:41:29;93406.25;;;3.63;95.95
73600;BME280;61877;48.246;9.220;2023-04-02T01:44:03;93407.47;;;3.57;96.09
73600;BME280;61877;48.246;9.220;2023-04-02T01:46:33;93405.56;;;3.49;96.03
73600;BME280;61877;48.246;9.220;2023-04-02T01:49:10;93410.53;;;3.42;96.28
73600;BME280;61877;48.246;9.220;2023-04-02T01:52:10;93411.00;;;3.35;96.54
73600;BME280;61877;48.246;9.220;2023-04-02T01:54:40;93410.06;;;3.31;96.66
73600;BME280;61877;48.246;9.220;2023-04-02T01:57:06;93413.34;;;3.28;96.25
73600;BME280;61877;48.246;9.220;2023-04-02T01:59:39;93418.00;;;3.23;96.71
73600;BME280;61877;48.246;9.220;2023-04-02T02:02:06;93413.78;;;3.22;97.06
73600;BME280;61877;48.246;9.220;2023-04-02T02:04:44;93416.78;;;3.37;95.83
73600;BME280;61877;48.246;9.220;2023-04-02T02:07:24;93417.56;;;3.29;96.27
73600;BME280;61877;48.246;9.220;2023-04-02T02:10:17;93421.59;;;3.18;96.33
73600;BME280;61877;48.246;9.220;2023-04-02T02:12:46;93419.97;;;3.09;96.59
73600;BME280;61877;48.246;9.220;2023-04-02T02:15:47;93431.63;;;2.99;96.53
73600;BME280;61877;48.246;9.220;2023-04-02T02:18:36;93432.88;;;2.93;96.75
73600;BME280;61877;48.246;9.220;2023-04-02T02:21:21;93431.28;;;2.92;96.85
73600;BME280;61877;48.246;9.220;2023-04-02T02:27:20;93442.13;;;3.13;97.85
73600;BME280;61877;48.246;9.220;2023-04-02T02:30:03;93438.09;;;3.24;97.89
73600;BME280;61877;48.246;9.220;2023-04-02T02:32:31;93442.19;;;3.30;97.21
73600;BME280;61877;48.246;9.220;2023-04-02T02:38:16;93445.94;;;3.37;96.11
73600;BME280;61877;48.246;9.220;2023-04-02T02:41:03;93443.63;;;3.44;96.14
73600;BME280;61877;48.246;9.220;2023-04-02T02:44:05;93451.28;;;3.46;96.01
73600;BME280;61877;48.246;9.220;2023-04-02T02:46:39;93453.63;;;3.56;96.01
73600;BME280;61877;48.246;9.220;2023-04-02T02:52:26;93445.84;;;3.59;96.06
73600;BME280;61877;48.246;9.220;2023-04-02T02:55:14;93446.34;;;3.61;95.82
73600;BME280;61877;48.246;9.220;2023-04-02T02:58:01;93446.63;;;3.51;95.65
73600;BME280;61877;48.246;9.220;2023-04-02T03:00:48;93444.56;;;3.48;96.10
73600;BME280;61877;48.246;9.220;2023-04-02T03:03:43;93445.94;;;3.37;95.83
73600;BME280;61877;48.246;9.220;2023-04-02T09:27:23;93805.38;;;10.80;68.52
73600;BME280;61877;48.246;9.220;2023-04-02T09:29:52;93811.53;;;11.11;68.45
73600;BME280;61877;48.246;9.220;2023-04-02T09:35:20;93814.22;;;11.42;64.15
73600;BME280;61877;48.246;9.220;2023-04-02T09:37:46;93814.91;;;12.05;63.68
73600;BME280;61877;48.246;9.220;2023-04-02T09:40:23;93824.59;;;12.29;62.68
73600;BME280;61877;48.246;9.220;2023-04-02T09:43:01;93824.66;;;13.12;58.70
73600;BME280;61877;48.246;9.220;2023-04-02T09:45:26;93823.28;;;13.44;59.38
73600;BME280;61877;48.246;9.220;2023-04-02T09:47:53;93825.50;;;13.65;57.81
73600;BME280;61877;48.246;9.220;2023-04-02T09:50:28;93827.75;;;13.85;57.64
73600;BME280;61877;48.246;9.220;2023-04-02T09:52:54;93827.75;;;13.59;57.99
73600;BME280;61877;48.246;9.220;2023-04-02T09:55:23;93828.91;;;13.13;55.99
73600;BME280;61877;48.246;9.220;2023-04-02T09:57:51;93837.00;;;12.94;58.96
73600;BME280;61877;48.246;9.220;2023-04-02T10:00:30;93838.00;;;12.86;59.54
73600;BME280;61877;48.246;9.220;2023-04-02T10:03:01;93843.97;;;12.76;58.92
73600;BME280;61877;48.246;9.220;2023-04-02T10:05:29;93845.34;;;12.28;59.47
73600;BME280;61877;48.246;9.220;2023-04-02T10:08:05;93839.81;;;12.21;57.51
73600;BME280;61877;48.246;9.220;2023-04-02T10:10:35;93844.31;;;11.98;60.84
73600;BME280;61877;48.246;9.220;2023-04-02T10:13:06;93848.88;;;11.79;62.79
73600;BME280;61877;48.246;9.220;2023-04-02T10:15:34;93849.84;;;11.71;61.70
73600;BME280;61877;48.246;9.220;2023-04-02T10:18:07;93854.22;;;11.47;62.86
73600;BME280;61877;48.246;9.220;2023-04-02T10:20:36;93856.25;;;11.50;63.92
73600;BME280;61877;48.246;9.220;2023-04-02T10:23:04;93861.00;;;11.41;62.69
73600;BME280;61877;48.246;9.220;2023-04-02T10:25:31;93859.97;;;11.30;63.59
73600;BME280;61877;48.246;9.220;2023-04-02T10:28:10;93864.38;;;11.07;61.83
73600;BME280;61877;48.246;9.220;2023-04-02T10:30:49;93862.72;;;10.87;64.43
73600;BME280;61877;48.246;9.220;2023-04-02T10:33:22;93867.59;;;10.97;63.71
73600;BME280;61877;48.246;9.220;2023-04-02T10:35:55;93863.56;;;10.76;63.60
73600;BME280;61877;48.246;9.220;2023-04-02T10:38:40;93880.41;;;10.61;64.23
73600;BME280;61877;48.246;9.220;2023-04-02T10:41:15;93873.13;;;10.61;67.24
73600;BME280;61877;48.246;9.220;2023-04-02T10:44:01;93876.97;;;10.76;64.78
73600;BME280;61877;48.246;9.220;2023-04-02T10:46:35;93874.38;;;10.79;62.81
73600;BME280;61877;48.246;9.220;2023-04-02T10:49:13;93885.78;;;10.76;63.48
73600;BME280;61877;48.246;9.220;2023-04-02T10:51:43;93881.56;;;10.75;63.90
73600;BME280;61877;48.246;9.220;2023-04-02T10:54:21;93887.25;;;10.74;63.64
73600;BME280;61877;48.246;9.220;2023-04-02T10:56:51;93893.28;;;10.43;63.87
73600;BME280;61877;48.246;9.220;2023-04-02T10:59:20;93900.44;;;10.51;63.55
73600;BME280;61877;48.246;9.220;2023-04-02T11:01:47;93893.06;;;10.48;64.26
73600;BME280;61877;48.246;9.220;2023-04-02T11:04:18;93895.97;;;10.43;66.31
73600;BME280;61877;48.246;9.220;2023-04-02T11:06:48;93897.09;;;10.42;66.83
73600;BME280;61877;48.246;9.220;2023-04-02T11:09:18;93895.78;;;10.36;68.35
73600;BME280;61877;48.246;9.220;2023-04-02T11:11:47;93894.56;;;10.33;65.17
73600;BME280;61877;48.246;9.220;2023-04-02T11:14:18;93900.59;;;10.30;67.17
73600;BME280;61877;48.246;9.220;2023-04-02T11:16:47;93907.19;;;10.33;67.52
73600;BME280;61877;48.246;9.220;2023-04-02T11:19:22;93903.38;;;10.34;67.94
73600;BME280;61877;48.246;9.220;2023-04-02T11:21:49;93906.31;;;10.29;66.12
73600;BME280;61877;48.246;9.220;2023-04-02T11:24:30;93911.00;;;10.32;66.55
73600;BME280;61877;48.246;9.220;2023-04-02T11:27:16;93911.56;;;10.25;67.59
73600;BME280;61877;48.246;9.220;2023-04-02T11:29:44;93913.50;;;10.53;67.41
73600;BME280;61877;48.246;9.220;2023-04-02T11:32:21;93923.06;;;10.26;69.95
73600;BME280;61877;48.246;9.220;2023-04-02T11:35:26;93925.19;;;10.20;72.54
73600;BME280;61877;48.246;9.220;2023-04-02T11:38:00;93929.66;;;10.28;75.01
73600;BME280;61877;48.246;9.220;2023-04-02T11:40:47;93932.44;;;10.32;77.62
73600;BME280;61877;48.246;9.220;2023-04-02T11:43:50;93941.63;;;10.19;76.10
73600;BME280;61877;48.246;9.220;2023-04-02T11:46:41;93934.16;;;10.12;71.88
73600;BME280;61877;48.246;9.220;2023-04-02T11:49:32;93940.16;;;9.73;74.14
73600;BME280;61877;48.246;9.220;2023-04-02T11:51:58;93941.84;;;9.78;76.38
73600;BME280;61877;48.246;9.220;2023-04-02T11:54:27;93947.41;;;9.97;78.61
73600;BME280;61877;48.246;9.220;2023-04-02T11:56:55;93945.22;;;10.23;77.96
73600;BME280;61877;48.246;9.220;2023-04-02T11:59:26;93944.81;;;10.36;78.09
73600;BME280;61877;48.246;9.220;2023-04-02T12:02:05;93946.06;;;10.39;76.57
73600;BME280;61877;48.246;9.220;2023-04-02T12:05:06;93948.47;;;10.56;73.56
73600;BME280;61877;48.246;9.220;2023-04-02T12:07:44;93948.84;;;10.43;71.49
73600;BME280;61877;48.246;9.220;2023-04-02T12:10:16;93950.53;;;10.35;73.34
73600;BME280;61877;48.246;9.220;2023-04-02T12:12:42;93952.53;;;10.38;73.92
73600;BME280;61877;48.246;9.220;2023-04-02T12:15:29;93957.16;;;10.65;73.01
73600;BME280;61877;48.246;9.220;2023-04-02T12:18:04;93954.81;;;10.91;71.06
73600;BME280;61877;48.246;9.220;2023-04-02T12:20:34;93959.69;;;11.29;71.56
73600;BME280;61877;48.246;9.220;2023-04-02T12:23:00;93960.53;;;11.92;66.78
73600;BME280;61877;48.246;9.220;2023-04-02T12:25:28;93964.56;;;12.17;64.56
73600;BME280;61877;48.246;9.220;2023-04-02T12:28:06;93960.81;;;13.10;67.07
73600;BME280;61877;48.246;9.220;2023-04-02T12:30:38;93959.31;;;13.73;60.49
73600;BME280;61877;48.246;9.220;2023-04-02T12:33:27;93956.00;;;14.84;56.29
73600;BME280;61877;48.246;9.220;2023-04-02T12:35:56;93959.81;;;15.42;54.26
73600;BME280;61877;48.246;9.220;2023-04-02T12:38:26;93954.69;;;16.68;55.36
73600;BME280;61877;48.246;9.220;2023-04-02T12:40:54;93950.91;;;17.90;49.05
73600;BME280;61877;48.246;9.220;2023-04-02T12:43:26;93957.25;;;17.19;49.00
73600;BME280;61877;48.246;9.220;2023-04-02T12:45:53;93946.84;;;17.35;45.50
73600;BME280;61877;48.246;9.220;2023-04-02T12:48:20;93952.56;;;16.44;50.48
73600;BME280;61877;48.246;9.220;2023-04-02T12:50:50;93957.44;;;16.21;48.68
73600;BME280;61877;48.246;9.220;2023-04-02T12:53:25;93968.06;;;14.93;50.43
73600;BME280;61877;48.246;9.220;2023-04-02T12:55:55;93958.38;;;15.22;49.02
73600;BME280;61877;48.246;9.220;2023-04-02T12:58:25;93960.97;;;15.11;52.61
73600;BME280;61877;48.246;9.220;2023-04-02T13:00:51;93963.94;;;15.36;53.34
73600;BME280;61877;48.246;9.220;2023-04-02T13:03:20;93963.75;;;15.18;52.90
73600;BME280;61877;48.246;9.220;2023-04-02T13:05:51;93954.56;;;15.60;50.82
73600;BME280;61877;48.246;9.220;2023-04-02T13:08:22;93960.53;;;15.39;51.04
73600;BME280;61877;48.246;9.220;2023-04-02T13:10:54;93962.41;;;15.72;51.58
73600;BME280;61877;48.246;9.220;2023-04-02T13:13:26;93960.72;;;16.00;47.50
73600;BME280;61877;48.246;9.220;2023-04-02T13:16:07;93969.66;;;15.31;52.47
73600;BME280;61877;48.246;9.220;2023-04-02T13:18:49;93967.44;;;14.74;51.63
73600;BME280;61877;48.246;9.220;2023-04-02T13:21:25;93971.47;;;14.35;53.50
73600;BME280;61877;48.246;9.220;2023-04-02T13:23:52;93970.53;;;14.23;53.64
73600;BME280;61877;48.246;9.220;2023-04-02T13:26:26;93967.47;;;14.77;51.69
73600;BME280;61877;48.246;9.220;2023-04-02T13:29:00;93968.22;;;14.48;52.22
73600;BME280;61877;48.246;9.220;2023-04-02T13:31:27;93969.44;;;14.54;52.76
73600;BME280;61877;48.246;9.220;2023-04-02T13:33:54;93973.53;;;14.71;53.27
73600;BME280;61877;48.246;9.220;2023-04-02T13:36:21;93964.13;;;15.17;49.78
73600;BME280;61877;48.246;9.220;2023-04-02T13:38:49;93965.41;;;15.63;48.56
73600;BME280;61877;48.246;9.220;2023-04-02T13:41:24;93959.88;;;16.40;46.19
73600;BME280;61877;48.246;9.220;2023-04-02T13:43:51;93969.78;;;17.48;45.72
73600;BME280;61877;48.246;9.220;2023-04-02T13:46:20;93967.88;;;17.55;48.22
73600;BME280;61877;48.246;9.220;2023-04-02T13:51:19;93985.88;;;16.01;49.58
73600;BME280;61877;48.246;9.220;2023-04-02T13:53:48;93993.91;;;14.65;52.31
73600;BME280;61877;48.246;9.220;2023-04-02T13:56:16;94000.06;;;13.49;56.18
73600;BME280;61877;48.246;9.220;2023-04-02T13:58:41;94004.13;;;13.20;61.32
73600;BME280;61877;48.246;9.220;2023-04-02T14:01:11;94002.19;;;12.67;65.18
73600;BME280;61877;48.246;9.220;2023-04-02T14:03:38;94001.88;;;12.03;68.77
73600;BME280;61877;48.246;9.220;2023-04-02T14:06:11;94012.13;;;11.82;71.04
73600;BME280;61877;48.246;9.220;2023-04-02T14:08:56;94004.41;;;11.37;71.50
73600;BME280;61877;48.246;9.220;2023-04-02T14:11:35;94004.31;;;11.33;74.29
73600;BME280;61877;48.246;9.220;2023-04-02T14:14:18;94007.81;;;11.22;73.80
73600;BME280;61877;48.246;9.220;2023-04-02T14:17:01;94007.19;;;11.13;74.30
73600;BME280;61877;48.246;9.220;2023-04-02T14:19:45;94010.69;;;11.01;73.73
73600;BME280;61877;48.246;9.220;2023-04-02T14:22:21;94011.06;;;11.27;74.46
73600;BME280;61877;48.246;9.220;2023-04-02T14:24:56;94013.03;;;11.03;73.86
73600;BME280;61877;48.246;9.220;2023-04-02T14:27:31;94013.78;;;11.15;74.32
73600;BME280;61877;48.246;9.220;2023-04-02T14:30:05;94014.66;;;11.19;76.25
73600;BME280;61877;48.246;9.220;2023-04-02T14:32:40;94015.28;;;11.28;75.51
73600;BME280;61877;48.246;9.220;2023-04-02T14:35:16;94013.66;;;11.39;74.88
73600;BME280;61877;48.246;9.220;2023-04-02T14:37:51;94016.50;;;11.58;72.88
73600;BME280;61877;48.246;9.220;2023-04-02T14:40:25;94020.63;;;11.40;70.04
73600;BME280;61877;48.246;9.220;2023-04-02T14:42:57;94014.66;;;11.47;70.33
73600;BME280;61877;48.246;9.220;2023-04-02T14:45:38;94019.41;;;11.65;71.61
73600;BME280;61877;48.246;9.220;2023-04-02T14:48:19;94015.50;;;11.51;71.97
73600;BME280;61877;48.246;9.220;2023-04-02T14:50:51;94020.78;;;11.47;70.01
73600;BME280;61877;48.246;9.220;2023-04-02T14:53:24;94024.69;;;11.50;72.15
73600;BME280;61877;48.246;9.220;2023-04-02T14:55:53;94018.09;;;11.32;69.19
73600;BME280;61877;48.246;9.220;2023-04-02T14:58:23;94024.91;;;11.29;70.42
73600;BME280;61877;48.246;9.220;2023-04-02T15:00:54;94025.66;;;11.42;71.11
73600;BME280;61877;48.246;9.220;2023-04-02T15:03:24;94023.78;;;11.30;70.77
73600;BME280;61877;48.246;9.220;2023-04-02T15:05:59;94023.22;;;11.52;69.95
73600;BME280;61877;48.246;9.220;2023-04-02T15:08:28;94023.91;;;11.49;70.79
73600;BME280;61877;48.246;9.220;2023-04-02T15:11:01;94026.75;;;11.68;67.23
73600;BME280;61877;48.246;9.220;2023-04-02T15:13:36;94025.13;;;11.80;69.16
73600;BME280;61877;48.246;9.220;2023-04-02T15:16:07;94031.03;;;11.57;69.57
73600;BME280;61877;48.246;9.220;2023-04-02T15:18:35;94031.81;;;11.58;68.70
73600;BME280;61877;48.246;9.220;2023-04-02T15:21:12;94037.00;;;11.79;68.04
73600;BME280;61877;48.246;9.220;2023-04-02T15:23:53;94042.31;;;11.63;68.67
73600;BME280;61877;48.246;9.220;2023-04-02T15:26:32;94044.81;;;11.56;68.80
73600;BME280;61877;48.246;9.220;2023-04-02T15:29:09;94040.53;;;11.39;67.49
73600;BME280;61877;48.246;9.220;2023-04-02T15:31:43;94050.91;;;11.25;68.02
73600;BME280;61877;48.246;9.220;2023-04-02T15:34:21;94050.09;;;11.25;67.77
73600;BME280;61877;48.246;9.220;2023-04-02T15:37:06;94051.59;;;11.22;67.49
73600;BME280;61877;48.246;9.220;2023-04-02T15:42:41;94049.91;;;11.45;65.92
73600;BME280;61877;48.246;9.220;2023-04-02T15:45:23;94054.34;;;11.53;64.79
73600;BME280;61877;48.246;9.220;2023-04-02T15:48:04;94059.69;;;11.65;65.90
73600;BME280;61877;48.246;9.220;2023-04-02T15:50:45;94059.66;;;11.38;64.31
73600;BME280;61877;48.246;9.220;2023-04-02T15:53:22;94062.03;;;11.67;64.89
73600;BME280;61877;48.246;9.220;2023-04-02T15:55:58;94066.91;;;11.77;65.16
73600;BME280;61877;48.246;9.220;2023-04-02T15:58:43;94069.66;;;11.81;65.19
73600;BME280;61877;48.246;9.220;2023-04-02T16:01:16;94064.13;;;11.74;63.76
73600;BME280;61877;48.246;9.220;2023-04-02T16:04:00;94076.63;;;11.54;66.55
73600;BME280;61877;48.246;9.220;2023-04-02T16:06:31;94073.09;;;11.10;66.50
73600;BME280;61877;48.246;9.220;2023-04-02T16:09:05;94082.44;;;10.89;66.00
73600;BME280;61877;48.246;9.220;2023-04-02T16:11:33;94076.25;;;11.00;67.58
73600;BME280;61877;48.246;9.220;2023-04-02T16:14:16;94090.16;;;10.78;68.79
73600;BME280;61877;48.246;9.220;2023-04-02T16:16:46;94097.09;;;10.79;68.38
73600;BME280;61877;48.246;9.220;2023-04-02T16:19:21;94091.06;;;10.70;68.67
73600;BME280;61877;48.246;9.220;2023-04-02T16:21:55;94093.44;;;10.48;69.55
73600;BME280;61877;48.246;9.220;2023-04-02T16:24:25;94092.75;;;10.38;70.44
73600;BME280;61877;48.246;9.220;2023-04-02T16:26:57;94105.84;;;10.28;71.68
73600;BME280;61877;48.246;9.220;2023-04-02T16:29:39;94098.00;;;10.35;71.01
73600;BME280;61877;48.246;9.220;2023-04-02T16:32:16;94115.66;;;10.24;71.63
73600;BME280;61877;48.246;9.220;2023-04-02T16:34:52;94108.06;;;10.14;71.96
73600;BME280;61877;48.246;9.220;2023-04-02T16:37:27;94121.06;;;10.03;73.50
73600;BME280;61877;48.246;9.220;2023-04-02T16:40:03;94125.28;;;9.92;73.25
73600;BME280;61877;48.246;9.220;2023-04-02T16:42:40;94132.53;;;9.92;73.74
73600;BME280;61877;48.246;9.220;2023-04-02T16:45:22;94131.41;;;9.81;73.97
73600;BME280;61877;48.246;9.220;2023-04-02T16:48:02;94131.69;;;9.67;74.58
73600;BME280;61877;48.246;9.220;2023-04-02T16:50:39;94141.81;;;9.62;74.90
73600;BME280;61877;48.246;9.220;2023-04-02T16:53:15;94152.09;;;9.60;75.30
73600;BME280;61877;48.246;9.220;2023-04-02T16:55:55;94147.84;;;9.59;74.69
73600;BME280;61877;48.246;9.220;2023-04-02T16:58:35;94153.88;;;9.35;76.66
73600;BME280;61877;48.246;9.220;2023-04-02T17:01:07;94151.28;;;9.27;78.19
73600;BME280;61877;48.246;9.220;2023-04-02T17:04:00;94153.94;;;9.27;77.59
73600;BME280;61877;48.246;9.220;2023-04-02T17:06:38;94159.53;;;9.34;77.37
73600;BME280;61877;48.246;9.220;2023-04-02T17:09:09;94163.31;;;9.12;78.40
73600;BME280;61877;48.246;9.220;2023-04-02T17:11:40;94163.84;;;8.85;79.10
73600;BME280;61877;48.246;9.220;2023-04-02T17:14:14;94170.59;;;8.82;79.14
73600;BME280;61877;48.246;9.220;2023-04-02T17:16:49;94170.72;;;8.65;79.56
73600;BME280;61877;48.246;9.220;2023-04-02T17:19:15;94177.59;;;8.75;79.20
73600;BME280;61877;48.246;9.220;2023-04-02T17:21:44;94177.13;;;8.73;79.63
73600;BME280;61877;48.246;9.220;2023-04-02T17:24:15;94179.69;;;8.61;79.37
73600;BME280;61877;48.246;9.220;2023-04-02T17:26:47;94191.84;;;8.50;80.75
73600;BME280;61877;48.246;9.220;2023-04-02T17:29:17;94192.91;;;8.57;80.25
73600;BME280;61877;48.246;9.220;2023-04-02T17:31:46;94195.75;;;8.52;80.80
73600;BME280;61877;48.246;9.220;2023-04-02T17:34:15;94205.50;;;8.57;80.72
73600;BME280;61877;48.246;9.220;2023-04-02T17:36:45;94204.44;;;8.49;80.57
73600;BME280;61877;48.246;9.220;2023-04-02T17:39:19;94212.91;;;8.51;80.41
73600;BME280;61877;48.246;9.220;2023-04-02T17:41:48;94211.88;;;8.44;80.70
73600;BME280;61877;48.246;9.220;2023-04-02T17:44:27;94222.25;;;8.37;80.70
73600;BME280;61877;48.246;9.220;2023-04-02T17:47:07;94219.91;;;8.35;80.69
73600;BME280;61877;48.246;9.220;2023-04-02T17:49:41;94225.25;;;8.35;80.56
73600;BME280;61877;48.246;9.220;2023-04-02T17:52:15;94235.00;;;8.31;81.06
73600;BME280;61877;48.246;9.220;2023-04-02T17:54:51;94235.19;;;8.26;80.95
73600;BME280;61877;48.246;9.220;2023-04-02T17:57:33;94240.97;;;8.20;81.84
73600;BME280;61877;48.246;9.220;2023-04-02T18:00:18;94240.66;;;8.13;82.13
73600;BME280;61877;48.246;9.220;2023-04-02T18:02:58;94257.03;;;8.11;82.80
73600;BME280;61877;48.246;9.220;2023-04-02T18:05:30;94249.31;;;8.10;83.39
73600;BME280;61877;48.246;9.220;2023-04-02T18:08:06;94255.94;;;8.04;83.42
73600;BME280;61877;48.246;9.220;2023-04-02T18:10:37;94259.84;;;8.06;83.84
73600;BME280;61877;48.246;9.220;2023-04-02T18:13:11;94271.34;;;7.98;85.26
73600;BME280;61877;48.246;9.220;2023-04-02T18:15:55;94271.03;;;8.00;84.50
73600;BME280;61877;48.246;9.220;2023-04-02T18:18:39;94270.72;;;7.93;85.66
73600;BME280;61877;48.246;9.220;2023-04-02T18:21:14;94280.94;;;7.82;86.55
73600;BME280;61877;48.246;9.220;2023-04-02T18:23:53;94274.34;;;7.79;86.55
73600;BME280;61877;48.246;9.220;2023-04-02T18:26:31;94287.56;;;7.67;87.89
73600;BME280;61877;48.246;9.220;2023-04-02T18:29:06;94291.78;;;7.68;88.02
73600;BME280;61877;48.246;9.220;2023-04-02T18:31:40;94297.75;;;7.65;86.76
73600;BME280;61877;48.246;9.220;2023-04-02T18:34:29;94302.31;;;7.65;87.89
73600;BME280;61877;48.246;9.220;2023-04-02T18:37:07;94313.78;;;7.65;87.43
73600;BME280;61877;48.246;9.220;2023-04-02T18:39:46;94309.84;;;7.63;87.45
73600;BME280;61877;48.246;9.220;2023-04-02T18:42:18;94313.63;;;7.62;86.72
73600;BME280;61877;48.246;9.220;2023-04-02T18:44:54;94312.06;;;7.61;87.63
73600;BME280;61877;48.246;9.220;2023-04-02T18:47:25;94312.66;;;7.58;88.23
73600;BME280;61877;48.246;9.220;2023-04-02T18:50:09;94314.41;;;7.54;88.65
73600;BME280;61877;48.246;9.220;2023-04-02T18:52:36;94323.34;;;7.58;88.32
73600;BME280;61877;48.246;9.220;2023-04-02T18:55:04;94318.63;;;7.55;88.21
73600;BME280;61877;48.246;9.220;2023-04-02T18:57:34;94325.22;;;7.49;87.33
73600;BME280;61877;48.246;9.220;2023-04-02T19:00:04;94332.13;;;7.50;87.08
73600;BME280;61877;48.246;9.220;2023-04-02T19:02:34;94337.78;;;7.48;87.28
73600;BME280;61877;48.246;9.220;2023-04-02T19:05:12;94331.94;;;7.46;86.40
73600;BME280;61877;48.246;9.220;2023-04-02T19:07:41;94347.97;;;7.46;87.69
73600;BME280;61877;48.246;9.220;2023-04-02T19:10:22;94348.13;;;7.33;87.41
73600;BME280;61877;48.246;9.220;2023-04-02T19:12:50;94359.09;;;7.40;86.94
73600;BME280;61877;48.246;9.220;2023-04-02T19:15:16;94359.25;;;7.35;87.07
73600;BME280;61877;48.246;9.220;2023-04-02T19:17:47;94362.38;;;7.37;87.04
73600;BME280;61877;48.246;9.220;2023-04-02T19:20:27;94367.88;;;7.32;86.96
73600;BME280;61877;48.246;9.220;2023-04-02T19:23:05;94374.41;;;7.17;87.82
73600;BME280;61877;48.246;9.220;2023-04-02T19:25:50;94373.31;;;7.18;87.54
73600;BME280;61877;48.246;9.220;2023-04-02T19:28:23;94374.88;;;7.11;88.05
73600;BME280;61877;48.246;9.220;2023-04-02T19:31:13;94386.97;;;7.17;89.49
73600;BME280;61877;48.246;9.220;2023-04-02T19:33:47;94388.06;;;7.16;88.51
73600;BME280;61877;48.246;9.220;2023-04-02T19:36:36;94391.94;;;7.10;88.79
73600;BME280;61877;48.246;9.220;2023-04-02T19:39:30;94404.53;;;7.09;88.98
73600;BME280;61877;48.246;9.220;2023-04-02T19:42:03;94409.47;;;6.94;88.40
73600;BME280;61877;48.246;9.220;2023-04-02T19:44:32;94405.44;;;6.74;89.35
73600;BME280;61877;48.246;9.220;2023-04-02T19:46:57;94410.34;;;6.81;89.39
73600;BME280;61877;48.246;9.220;2023-04-02T19:49:25;94418.88;;;6.69;89.66
73600;BME280;61877;48.246;9.220;2023-04-02T19:51:52;94417.72;;;6.62;89.71
73600;BME280;61877;48.246;9.220;2023-04-02T19:54:18;94423.78;;;6.53;90.61
73600;BME280;61877;48.246;9.220;2023-04-02T19:56:47;94423.03;;;6.53;89.71
73600;BME280;61877;48.246;9.220;2023-04-02T19:59:12;94429.75;;;6.50;89.84
73600;BME280;61877;48.246;9.220;2023-04-02T20:01:38;94428.09;;;6.41;90.26
73600;BME280;61877;48.246;9.220;2023-04-02T20:04:04;94424.66;;;6.18;90.93
73600;BME280;61877;48.246;9.220;2023-04-02T20:06:30;94430.81;;;6.27;91.29
73600;BME280;61877;48.246;9.220;2023-04-02T20:08:57;94431.19;;;6.34;91.03
73600;BME280;61877;48.246;9.220;2023-04-02T20:11:23;94437.38;;;6.21;91.74
73600;BME280;61877;48.246;9.220;2023-04-02T20:13:48;94431.53;;;6.19;91.88
73600;BME280;61877;48.246;9.220;2023-04-02T20:16:14;94432.66;;;6.18;92.32
73600;BME280;61877;48.246;9.220;2023-04-02T20:18:40;94437.97;;;6.18;91.05
73600;BME280;61877;48.246;9.220;2023-04-02T20:21:06;94436.31;;;6.09;90.92
73600;BME280;61877;48.246;9.220;2023-04-02T20:23:32;94450.91;;;6.11;90.68
73600;BME280;61877;48.246;9.220;2023-04-02T20:26:02;94445.09;;;6.09;90.42
73600;BME280;61877;48.246;9.220;2023-04-02T20:28:28;94445.69;;;6.06;92.12
73600;BME280;61877;48.246;9.220;2023-04-02T20:31:04;94458.59;;;6.13;91.64